University Park Airport
KUNV : now visible

Aeroporto :











RITROVATECI SU...

 
LOGIN :

Iscrizione | Disclaimer

   EN    FR    IT 

 









Sommario :    VFR   VFR Marginale   IFR   IFR Intensivo   IFR Molto Intensivo
Visibilità : 
Base nubi : 
>= 8 km
>= 3000ft
5 / 8 km
1000 / 3000 ft
1500m / 5 km
500 / 1000 ft
800 / 1500m
200 / 500 ft
< 800m
< 200 ft
Simboli :   Temporali  Nebbia  Neve Forte  Precipitazioni Forti  Vento > 20 kt






- Altitudine del aeroporto : 1239 ft


KUNV - University Park

ULTIMO METAR :
  • 260555Z AUTO 25005KT 10SM OVC013 08/08 A3000 RMK AO2 P0001 60016 T00830075 10085 20061

METARs OBSOLETI :
  • 260535Z AUTO 26005KT 10SM OVC009 08/08 A3000 RMK AO2 P0001 T00770075
  • 260515Z AUTO 00000KT 7SM -DZ OVC012 07/07 A3001 RMK AO2 P0001 T00670065
  • 260455Z AUTO 33005KT 7SM RA OVC014 07/07 A3002 RMK AO2 P0002 T00660065
  • 260435Z AUTO 33003KT 4SM RA OVC014 07/06 A3002 RMK AO2 P0002 T00650062
  • 260415Z AUTO 36003KT 7SM -RA OVC014 07/06 A3002 RMK AO2 P0001 T00650061
  • 260355Z AUTO 33004KT 5SM -RA OVC016 06/06 A3003 RMK AO2 P0006 T00620059 400850023
  • 260335Z AUTO 00000KT 5SM RA OVC018 06/06 A3004 RMK AO2 P0005 T00620057
  • 260315Z AUTO 32003KT 7SM RA BKN021 BKN026 OVC031 06/06 A3004 RMK AO2 P0002 T00640055

TAF KUNV
Valido dal 26 a 06 ore il 27 a 06 ore UTC


260530Z 2606/2706 32003KT P6SM -DZ OVC012 WS016/20036KT
FM260900 19008KT 4SM -SHRA BR OVC015 WS018/21037KT
FM261400 21005KT 6SM -DZ BKN008 OVC012
FM261700 26009KT P6SM OVC030
FIR KZNY / America del Nord



MetMap, La meteo Aeronautica in un colpo d'occhio ! - Copyright ORBIFLY Dicembre 2007 - Disclaimer

ORBIFLY MET'MAP TEAM :

Programmazione e sviluppo : Alexandra Zaïnal
Concezione : Baudouin d'Aumeries
Aiuto per la programmazione : Marc-Olivier Méhu
Supporto tecnico e logistico : Manuel Goepfert
Aiuto per la traduzione : Arnaldo La Scala

Contatto : metmap@orbifly.com




FONTI E CREDITI :

   NOAA       Earth
Advisory